createdAt,value
2023-07-26T00:01:01.016Z,33.74
2023-07-26T00:03:28.499Z,33.79
2023-07-26T00:05:55.846Z,33.83
2023-07-26T00:08:23.184Z,33.77
2023-07-26T00:10:50.469Z,33.44
2023-07-26T00:13:18.055Z,33.33
2023-07-26T00:15:45.618Z,33.64
2023-07-26T00:18:13.066Z,33.68
2023-07-26T00:20:40.494Z,33.50
2023-07-26T00:23:07.817Z,33.47
2023-07-26T00:25:36.097Z,33.45
2023-07-26T00:28:03.455Z,33.40
2023-07-26T00:30:30.835Z,33.29
2023-07-26T00:32:58.270Z,33.36
2023-07-26T00:35:26.373Z,33.22
2023-07-26T00:37:53.720Z,33.55
2023-07-26T00:40:21.218Z,33.30
2023-07-26T00:42:48.616Z,33.28
2023-07-26T00:45:15.962Z,33.00
2023-07-26T00:47:43.336Z,33.06
2023-07-26T00:50:10.860Z,33.26
2023-07-26T00:52:38.625Z,33.56
2023-07-26T00:55:06.367Z,33.67
2023-07-26T00:57:33.885Z,33.21
2023-07-26T01:00:01.256Z,33.27
2023-07-26T01:02:28.635Z,33.10
2023-07-26T01:04:56.290Z,33.13
2023-07-26T01:07:32.674Z,33.22
2023-07-26T01:10:02.544Z,33.08
2023-07-26T01:12:43.834Z,33.34
2023-07-26T01:15:12.072Z,33.17
2023-07-26T01:17:39.632Z,33.27
2023-07-26T01:20:07.433Z,33.05
2023-07-26T01:22:34.869Z,32.31
2023-07-26T01:25:02.349Z,32.02
2023-07-26T01:27:29.767Z,32.79
2023-07-26T01:29:58.105Z,33.04
2023-07-26T01:32:25.613Z,33.25
2023-07-26T01:34:53.084Z,33.13
2023-07-26T01:37:20.728Z,32.98
2023-07-26T01:39:49.269Z,32.91
2023-07-26T01:42:16.716Z,32.95
2023-07-26T01:44:44.046Z,32.32
2023-07-26T01:47:11.348Z,32.50
2023-07-26T01:49:38.685Z,32.88
2023-07-26T01:52:07.260Z,32.94
2023-07-26T01:54:34.774Z,32.96
2023-07-26T01:57:02.156Z,32.79
2023-07-26T01:59:29.934Z,32.51
2023-07-26T02:01:58.363Z,32.01
2023-07-26T02:04:26.053Z,32.34
2023-07-26T02:06:53.852Z,32.20
2023-07-26T02:09:21.197Z,32.40
2023-07-26T02:11:48.611Z,32.73
2023-07-26T02:14:17.150Z,32.72
2023-07-26T02:16:44.521Z,32.68
2023-07-26T02:19:11.921Z,32.56
2023-07-26T02:21:39.269Z,32.41
2023-07-26T02:24:06.641Z,32.32
2023-07-26T02:26:33.993Z,32.23
2023-07-26T02:29:01.513Z,32.37
2023-07-26T02:31:29.037Z,32.26
2023-07-26T02:33:56.650Z,32.26
2023-07-26T02:36:25.564Z,32.20
2023-07-26T02:38:52.979Z,31.98
2023-07-26T02:41:20.297Z,31.87
2023-07-26T02:43:47.681Z,32.24
2023-07-26T02:46:15.055Z,32.16
2023-07-26T02:48:42.427Z,32.27
2023-07-26T02:51:09.841Z,32.26
2023-07-26T02:53:37.217Z,32.29
2023-07-26T02:56:04.801Z,32.04
2023-07-26T02:58:32.230Z,31.85
2023-07-26T03:00:59.826Z,32.07
2023-07-26T03:03:27.442Z,32.31
2023-07-26T03:05:58.836Z,32.00
2023-07-26T03:08:26.221Z,32.20
2023-07-26T03:10:53.646Z,32.26
2023-07-26T03:13:21.044Z,32.62
2023-07-26T03:15:50.254Z,32.74
2023-07-26T03:18:17.954Z,32.73
2023-07-26T03:20:46.933Z,32.89
2023-07-26T03:23:14.808Z,32.89
2023-07-26T03:25:42.999Z,32.72
2023-07-26T03:28:10.291Z,32.90
2023-07-26T03:30:37.899Z,32.86
2023-07-26T03:33:05.469Z,32.93
2023-07-26T03:35:33.039Z,33.11
2023-07-26T03:38:00.413Z,33.20
2023-07-26T03:40:27.757Z,33.40
2023-07-26T03:42:55.130Z,33.96
2023-07-26T03:45:22.622Z,34.33
2023-07-26T03:47:50.111Z,34.40
2023-07-26T03:50:21.383Z,34.64
2023-07-26T03:52:48.775Z,35.14
2023-07-26T03:55:16.197Z,35.28
2023-07-26T03:57:44.391Z,35.20
2023-07-26T04:00:12.971Z,35.26
2023-07-26T04:02:40.514Z,34.85
2023-07-26T04:05:08.316Z,35.07
2023-07-26T04:07:41.894Z,35.37
2023-07-26T04:10:10.090Z,35.39
2023-07-26T04:12:37.418Z,35.40
2023-07-26T04:15:05.652Z,35.58
2023-07-26T04:17:32.965Z,35.53
2023-07-26T04:20:00.262Z,35.41
2023-07-26T04:22:27.582Z,35.73
2023-07-26T04:24:54.918Z,35.62
2023-07-26T04:27:22.384Z,35.37
2023-07-26T04:29:49.763Z,35.37
2023-07-26T04:32:17.049Z,35.30
2023-07-26T04:34:44.459Z,35.33
2023-07-26T04:37:11.815Z,35.44
2023-07-26T04:39:39.163Z,35.43
2023-07-26T04:42:06.628Z,35.38
2023-07-26T04:44:33.939Z,35.40
2023-07-26T04:47:01.365Z,35.21
2023-07-26T04:49:28.853Z,35.60
2023-07-26T04:51:56.188Z,35.82
2023-07-26T04:54:23.488Z,35.94
2023-07-26T04:56:50.807Z,36.09
2023-07-26T04:59:18.146Z,35.66
2023-07-26T05:01:45.463Z,35.60
2023-07-26T05:04:12.764Z,36.02
2023-07-26T05:06:40.097Z,36.45
2023-07-26T05:09:07.467Z,36.36
2023-07-26T05:11:35.195Z,35.98
2023-07-26T05:14:03.287Z,35.86
2023-07-26T05:16:30.688Z,36.11
2023-07-26T05:19:00.178Z,36.15
2023-07-26T05:21:27.609Z,36.72
2023-07-26T05:23:54.962Z,37.24
2023-07-26T05:26:22.361Z,37.16
2023-07-26T05:28:49.679Z,37.11
2023-07-26T05:31:18.143Z,37.24
2023-07-26T05:33:45.516Z,37.22
2023-07-26T05:36:52.536Z,34.71
2023-07-26T05:39:19.908Z,35.75
2023-07-26T05:41:47.255Z,35.63
2023-07-26T05:44:14.683Z,35.71
2023-07-26T05:46:42.038Z,36.05
2023-07-26T05:49:10.848Z,36.57
2023-07-26T05:51:38.332Z,37.11
2023-07-26T05:54:05.630Z,37.27
2023-07-26T05:56:32.923Z,37.37
2023-07-26T05:59:00.296Z,37.52
2023-07-26T06:01:28.352Z,37.55
2023-07-26T06:03:55.742Z,37.55
2023-07-26T06:06:23.117Z,37.72
2023-07-26T06:08:52.159Z,37.96
2023-07-26T06:11:19.526Z,37.91
2023-07-26T06:13:47.233Z,37.76
2023-07-26T06:16:14.580Z,37.97
2023-07-26T06:18:41.934Z,38.01
2023-07-26T06:21:10.443Z,38.17
2023-07-26T06:23:37.779Z,38.30
2023-07-26T06:26:05.163Z,38.47
2023-07-26T06:28:32.607Z,38.47
2023-07-26T06:31:00.734Z,38.39
2023-07-26T06:33:28.101Z,38.43
2023-07-26T06:35:55.979Z,38.44
2023-07-26T06:38:23.422Z,38.69
2023-07-26T06:40:51.121Z,38.82
2023-07-26T06:43:18.454Z,39.14
2023-07-26T06:45:51.711Z,39.26
2023-07-26T06:48:19.583Z,39.33
2023-07-26T06:50:47.014Z,39.10
2023-07-26T06:53:14.349Z,39.01
2023-07-26T06:55:41.682Z,39.06
2023-07-26T06:58:09.383Z,38.93
2023-07-26T07:00:36.725Z,38.98
2023-07-26T07:03:04.683Z,39.17
2023-07-26T07:05:39.414Z,39.24
2023-07-26T07:08:06.788Z,39.34
2023-07-26T07:10:34.182Z,39.49
2023-07-26T07:13:01.517Z,39.57
2023-07-26T07:15:28.850Z,39.74
2023-07-26T07:18:09.511Z,39.72
2023-07-26T07:20:42.286Z,39.67
2023-07-26T07:23:10.625Z,39.77
2023-07-26T07:25:39.825Z,39.56
2023-07-26T07:28:07.222Z,39.20
2023-07-26T07:30:36.797Z,39.08
2023-07-26T07:33:04.547Z,38.97
2023-07-26T07:35:32.060Z,38.56
2023-07-26T07:37:59.445Z,38.38
2023-07-26T07:40:27.660Z,38.74
2023-07-26T07:42:55.071Z,38.94
2023-07-26T07:45:22.482Z,38.55
2023-07-26T07:47:49.832Z,38.75
2023-07-26T07:50:17.738Z,38.81
2023-07-26T07:52:45.556Z,38.91
2023-07-26T07:55:12.887Z,39.27
2023-07-26T07:57:40.311Z,39.48
2023-07-26T08:00:10.445Z,39.37
2023-07-26T08:02:40.598Z,39.12
2023-07-26T08:05:08.168Z,39.48
2023-07-26T08:07:35.600Z,40.14
2023-07-26T08:10:03.261Z,40.91
2023-07-26T08:12:30.614Z,41.32
2023-07-26T08:14:57.961Z,41.36
2023-07-26T08:17:25.673Z,41.34
2023-07-26T08:19:53.007Z,41.00
2023-07-26T08:22:20.405Z,40.90
2023-07-26T08:24:51.849Z,41.20
2023-07-26T08:27:19.971Z,41.34
2023-07-26T08:29:47.403Z,41.65
2023-07-26T08:32:14.817Z,41.84
2023-07-26T08:34:42.204Z,42.02
2023-07-26T08:37:10.314Z,41.76
2023-07-26T08:39:37.734Z,41.58
2023-07-26T08:42:05.469Z,41.52
2023-07-26T08:44:32.826Z,41.32
2023-07-26T08:47:00.793Z,41.06
2023-07-26T08:49:28.342Z,40.94
2023-07-26T08:51:57.567Z,41.04
2023-07-26T08:54:26.036Z,41.07
2023-07-26T08:56:53.368Z,40.76
2023-07-26T08:59:20.713Z,40.64
2023-07-26T09:02:01.775Z,40.43
2023-07-26T09:04:31.826Z,39.92
2023-07-26T09:07:05.738Z,39.39
2023-07-26T09:09:34.309Z,38.99
2023-07-26T09:12:02.050Z,38.51
2023-07-26T09:26:43.331Z,36.20
2023-07-26T09:29:14.585Z,37.05
2023-07-26T09:31:44.328Z,36.68
2023-07-26T09:34:16.115Z,36.02
2023-07-26T09:36:49.236Z,35.45
2023-07-26T09:39:18.087Z,35.02
2023-07-26T09:41:47.043Z,34.76
2023-07-26T09:44:16.883Z,34.69
2023-07-26T09:46:51.851Z,34.60
2023-07-26T09:54:34.376Z,34.43
2023-07-26T09:57:04.984Z,34.40
2023-07-26T09:59:32.701Z,34.31
2023-07-26T10:02:07.821Z,34.28
2023-07-26T10:04:40.256Z,34.04
2023-07-26T10:07:12.917Z,34.29
2023-07-26T10:09:48.392Z,34.47
2023-07-26T10:12:16.247Z,34.85
2023-07-26T10:14:43.783Z,35.24
2023-07-26T10:17:11.757Z,35.29
2023-07-26T10:19:39.145Z,35.46
2023-07-26T10:22:08.257Z,35.66
2023-07-26T10:24:35.662Z,36.15
2023-07-26T10:27:03.381Z,36.37
2023-07-26T10:29:30.732Z,36.58
2023-07-26T10:32:04.834Z,36.90
2023-07-26T10:34:32.232Z,37.24
2023-07-26T10:36:59.612Z,37.57
2023-07-26T10:39:31.469Z,37.35
2023-07-26T10:41:58.896Z,36.86
2023-07-26T10:44:26.303Z,37.01
2023-07-26T10:47:11.882Z,37.16
2023-07-26T10:49:39.309Z,36.82
2023-07-26T10:52:07.206Z,36.73
2023-07-26T10:54:47.770Z,36.77
2023-07-26T10:57:27.657Z,36.89
2023-07-26T11:00:02.714Z,37.07
2023-07-26T11:02:46.444Z,37.33
2023-07-26T11:05:18.626Z,37.55
2023-07-26T11:07:49.733Z,37.59
2023-07-26T11:10:24.164Z,37.52
2023-07-26T11:13:12.015Z,37.82
2023-07-26T11:16:11.159Z,38.40
2023-07-26T11:18:30.965Z,38.94
2023-07-26T11:20:58.411Z,39.39
2023-07-26T11:23:28.208Z,39.47
2023-07-26T11:26:05.147Z,39.67
2023-07-26T11:28:34.226Z,39.81
2023-07-26T11:31:02.182Z,39.74
2023-07-26T11:33:33.118Z,40.11
2023-07-26T11:36:02.054Z,40.14
2023-07-26T11:38:29.501Z,40.00
2023-07-26T11:40:59.822Z,39.85
2023-07-26T11:43:31.102Z,39.53
2023-07-26T11:45:58.687Z,39.21
2023-07-26T11:48:32.335Z,39.06
2023-07-26T11:51:06.851Z,39.16
2023-07-26T11:53:45.448Z,39.05
2023-07-26T11:56:16.060Z,38.98
2023-07-26T11:58:45.360Z,38.89
2023-07-26T12:01:13.696Z,38.85
2023-07-26T12:03:41.733Z,38.77
2023-07-26T12:06:10.818Z,38.55
2023-07-26T12:08:39.523Z,38.61
2023-07-26T12:11:08.136Z,38.71
2023-07-26T12:13:36.366Z,38.81
2023-07-26T12:16:04.687Z,38.82
2023-07-26T12:18:33.304Z,38.89
2023-07-26T12:21:05.528Z,39.02
2023-07-26T12:23:53.198Z,39.20
2023-07-26T12:26:42.808Z,39.14
2023-07-26T12:29:10.156Z,39.15
2023-07-26T12:31:40.531Z,39.20
2023-07-26T12:34:14.863Z,39.28
2023-07-26T12:36:42.705Z,38.99
2023-07-26T12:39:10.846Z,39.13
2023-07-26T12:41:42.420Z,39.20
2023-07-26T12:44:12.432Z,39.47
2023-07-26T12:49:11.802Z,39.79
2023-07-26T12:51:39.753Z,39.98
2023-07-26T12:54:07.280Z,40.05
2023-07-26T12:56:35.225Z,40.15
2023-07-26T12:59:08.074Z,40.14
2023-07-26T13:01:38.990Z,39.89
2023-07-26T13:04:07.329Z,39.80
2023-07-26T13:06:35.196Z,39.74
2023-07-26T13:09:02.771Z,39.65
2023-07-26T13:11:30.167Z,39.74
2023-07-26T13:13:58.105Z,39.48
2023-07-26T13:16:30.454Z,39.55
2023-07-26T13:18:58.502Z,39.80
2023-07-26T13:21:25.884Z,39.92
2023-07-26T13:23:53.313Z,39.43
2023-07-26T13:26:20.674Z,39.09
2023-07-26T13:28:48.975Z,38.95
2023-07-26T13:31:18.029Z,38.99
2023-07-26T13:33:50.826Z,38.88
2023-07-26T13:36:23.283Z,38.59
2023-07-26T13:38:50.888Z,38.60
2023-07-26T13:41:18.518Z,38.45
2023-07-26T13:43:45.921Z,38.37
2023-07-26T13:46:28.813Z,38.21
2023-07-26T13:49:00.172Z,38.27
2023-07-26T13:51:27.556Z,38.51
2023-07-26T13:53:54.897Z,38.74
2023-07-26T13:56:22.293Z,38.96
2023-07-26T13:58:49.682Z,38.96
2023-07-26T14:01:17.698Z,38.71
2023-07-26T14:03:45.427Z,38.67
2023-07-26T14:06:12.807Z,38.66
2023-07-26T14:08:40.134Z,38.66
2023-07-26T14:11:07.529Z,38.69
2023-07-26T14:13:34.924Z,38.60
2023-07-26T14:18:32.731Z,39.15
2023-07-26T14:21:00.309Z,39.17
2023-07-26T14:23:30.327Z,39.33
2023-07-26T14:25:57.698Z,39.53
2023-07-26T14:28:25.052Z,39.45
2023-07-26T14:30:52.750Z,39.62
2023-07-26T14:33:20.244Z,39.56
2023-07-26T14:35:48.206Z,39.44
2023-07-26T14:38:15.562Z,39.34
2023-07-26T14:40:42.927Z,39.22
2023-07-26T14:43:10.280Z,39.26
2023-07-26T14:45:37.616Z,39.24
2023-07-26T14:48:05.166Z,39.40
2023-07-26T14:50:32.515Z,39.29
2023-07-26T14:52:59.890Z,39.26
2023-07-26T14:55:28.702Z,39.38
2023-07-26T14:57:58.034Z,39.42
2023-07-26T15:00:25.535Z,39.44
2023-07-26T15:02:52.926Z,39.45
2023-07-26T15:05:20.497Z,39.53
2023-07-26T15:07:48.088Z,39.59
2023-07-26T15:10:17.450Z,39.56
2023-07-26T15:12:47.476Z,39.59
2023-07-26T15:15:15.859Z,39.56
2023-07-26T15:17:43.324Z,39.43
2023-07-26T15:20:11.975Z,39.45
2023-07-26T15:22:39.870Z,39.28
2023-07-26T15:25:07.556Z,39.25
2023-07-26T15:27:34.924Z,38.69
2023-07-26T15:30:04.468Z,38.26
2023-07-26T15:32:32.271Z,38.12
2023-07-26T15:34:59.765Z,38.18
2023-07-26T15:37:27.237Z,38.11
2023-07-26T15:39:54.762Z,37.97
2023-07-26T15:47:25.367Z,37.61
2023-07-26T15:52:23.399Z,37.61
2023-07-26T15:54:50.802Z,37.63
2023-07-26T15:57:18.154Z,37.63
2023-07-26T15:59:45.543Z,37.64
2023-07-26T16:02:13.296Z,37.57
2023-07-26T16:07:11.064Z,37.49
2023-07-26T16:09:38.476Z,37.23
2023-07-26T16:22:09.379Z,36.85
2023-07-26T16:24:36.799Z,36.63
2023-07-26T16:27:04.743Z,36.62
2023-07-26T16:29:33.894Z,36.58
2023-07-26T16:32:01.263Z,36.57
2023-07-26T16:34:29.389Z,36.45
2023-07-26T16:36:57.036Z,36.33
2023-07-26T16:39:24.392Z,36.26
2023-07-26T16:41:51.973Z,36.35
2023-07-26T16:44:19.368Z,36.44
2023-07-26T16:47:07.593Z,36.44
2023-07-26T16:49:34.307Z,36.55
2023-07-26T16:52:01.708Z,36.45
2023-07-26T16:54:29.158Z,36.37
2023-07-26T16:56:56.490Z,36.48
2023-07-26T16:59:23.848Z,36.48
2023-07-26T17:01:51.271Z,36.29
2023-07-26T17:04:18.790Z,36.39
2023-07-26T17:06:46.153Z,36.74
2023-07-26T17:09:13.599Z,36.82
2023-07-26T17:11:40.976Z,36.84
2023-07-26T17:14:08.325Z,36.83
2023-07-26T17:16:35.897Z,36.83
2023-07-26T17:19:03.804Z,36.64
2023-07-26T17:21:31.181Z,36.53
2023-07-26T17:23:58.563Z,36.37
2023-07-26T17:26:31.115Z,36.11
2023-07-26T17:28:58.740Z,36.00
2023-07-26T17:31:27.926Z,36.14
2023-07-26T17:33:55.905Z,36.08
2023-07-26T17:36:23.318Z,35.91
2023-07-26T17:38:51.378Z,35.88
2023-07-26T17:41:18.915Z,35.80
2023-07-26T17:43:47.144Z,35.72
2023-07-26T17:46:14.674Z,35.53
2023-07-26T17:48:42.189Z,35.32
2023-07-26T17:51:10.872Z,35.44
2023-07-26T17:53:38.557Z,35.36
2023-07-26T17:56:06.257Z,35.36
2023-07-26T17:58:34.243Z,35.39
2023-07-26T18:01:01.598Z,35.61
2023-07-26T18:03:29.692Z,35.70
2023-07-26T18:06:03.580Z,35.53
2023-07-26T18:08:31.009Z,35.27
2023-07-26T18:10:59.585Z,35.06
2023-07-26T18:13:27.325Z,34.52
2023-07-26T18:16:09.837Z,34.14
2023-07-26T18:18:37.454Z,34.04
2023-07-26T18:21:06.527Z,34.28
2023-07-26T18:23:34.229Z,34.84
2023-07-26T18:26:01.760Z,34.97
2023-07-26T18:28:29.229Z,35.06
2023-07-26T18:31:04.173Z,34.94
2023-07-26T18:33:31.865Z,34.96
2023-07-26T18:35:59.229Z,34.97
2023-07-26T18:38:26.698Z,34.87
2023-07-26T18:40:54.137Z,34.84
2023-07-26T18:43:24.543Z,34.77
2023-07-26T18:45:52.602Z,34.63
2023-07-26T18:48:23.126Z,34.58
2023-07-26T18:50:51.234Z,34.30
2023-07-26T18:53:18.900Z,34.06
2023-07-26T18:55:48.938Z,33.99
2023-07-26T18:58:16.506Z,33.87
2023-07-26T19:00:44.941Z,33.66
2023-07-26T19:03:12.385Z,33.63
2023-07-26T19:05:40.596Z,33.67
2023-07-26T19:08:08.232Z,33.48
2023-07-26T19:10:40.464Z,33.44
2023-07-26T19:13:08.436Z,33.44
2023-07-26T19:15:36.475Z,33.37
2023-07-26T19:18:04.434Z,33.30
2023-07-26T19:20:32.237Z,33.10
2023-07-26T19:23:04.196Z,32.96
2023-07-26T19:25:34.879Z,32.97
2023-07-26T19:28:02.513Z,32.89
2023-07-26T19:30:32.442Z,32.70
2023-07-26T19:32:59.890Z,32.75
2023-07-26T19:35:29.695Z,32.58
2023-07-26T19:37:57.281Z,32.41
2023-07-26T19:40:24.689Z,32.22
2023-07-26T19:42:52.045Z,32.32
2023-07-26T19:45:19.622Z,32.24
2023-07-26T19:47:48.065Z,32.18
2023-07-26T19:50:16.493Z,31.98
2023-07-26T19:52:44.132Z,31.79
2023-07-26T19:55:12.472Z,31.68
2023-07-26T19:57:39.945Z,31.38
2023-07-26T20:00:08.306Z,31.29
2023-07-26T20:02:41.760Z,31.38
2023-07-26T20:05:09.542Z,31.22
2023-07-26T20:07:36.834Z,30.97
2023-07-26T20:10:04.860Z,30.93
2023-07-26T20:12:32.240Z,30.99
2023-07-26T20:15:01.083Z,31.08
2023-07-26T20:17:30.731Z,31.11
2023-07-26T20:20:00.257Z,31.26
2023-07-26T20:22:27.759Z,31.39
2023-07-26T20:24:55.184Z,31.33
2023-07-26T20:27:22.788Z,31.29
2023-07-26T20:29:50.282Z,31.39
2023-07-26T20:32:17.629Z,31.38
2023-07-26T20:34:45.018Z,31.40
2023-07-26T20:37:12.382Z,31.28
2023-07-26T20:39:39.740Z,31.46
2023-07-26T20:42:07.394Z,31.59
2023-07-26T20:44:34.718Z,31.60
2023-07-26T20:47:02.271Z,31.61
2023-07-26T20:49:30.947Z,31.58
2023-07-26T20:51:58.236Z,31.48
2023-07-26T20:54:25.863Z,31.39
2023-07-26T20:56:53.305Z,31.29
2023-07-26T20:59:20.648Z,31.20
2023-07-26T21:01:50.314Z,31.25
2023-07-26T21:04:19.810Z,31.32
2023-07-26T21:06:47.159Z,31.26
2023-07-26T21:09:14.532Z,31.15
2023-07-26T21:11:41.873Z,31.00
2023-07-26T21:14:09.198Z,30.90
2023-07-26T21:16:36.827Z,30.68
2023-07-26T21:19:04.684Z,30.89
2023-07-26T21:21:32.337Z,30.96
2023-07-26T21:23:59.860Z,30.86
2023-07-26T21:26:27.295Z,30.94
2023-07-26T21:28:54.633Z,30.85
2023-07-26T21:33:19.740Z,27.40
2023-07-26T21:35:46.350Z,28.74
2023-07-26T21:38:14.042Z,29.01
2023-07-26T21:40:40.644Z,29.10
2023-07-26T21:43:07.214Z,29.06
2023-07-26T21:45:33.689Z,29.01
2023-07-26T21:48:02.356Z,29.04
2023-07-26T21:50:29.102Z,29.10
2023-07-26T21:52:56.129Z,29.19
2023-07-26T21:55:22.593Z,29.18
2023-07-26T21:57:49.081Z,29.16
2023-07-26T22:00:16.339Z,29.06
2023-07-26T22:02:43.223Z,28.79
2023-07-26T22:05:10.067Z,28.71
2023-07-26T22:07:37.042Z,28.69
2023-07-26T22:10:04.029Z,28.77
2023-07-26T22:12:30.688Z,28.64
2023-07-26T22:14:57.153Z,28.66
2023-07-26T22:17:23.592Z,28.62
2023-07-26T22:19:50.959Z,28.76
2023-07-26T22:22:17.492Z,28.99
2023-07-26T22:24:47.957Z,28.95
2023-07-26T22:27:14.389Z,28.70
2023-07-26T22:29:40.840Z,28.82
2023-07-26T22:32:08.322Z,28.93
2023-07-26T22:34:34.751Z,28.99
2023-07-26T22:37:01.155Z,29.07
2023-07-26T22:39:27.801Z,29.03
2023-07-26T22:41:54.279Z,28.96
2023-07-26T22:44:21.888Z,28.96
2023-07-26T22:46:48.495Z,28.89
2023-07-26T22:49:14.931Z,28.90
2023-07-26T22:51:41.411Z,28.58
2023-07-26T22:54:07.874Z,28.68
2023-07-26T22:56:34.707Z,29.11
2023-07-26T22:59:01.691Z,29.16
2023-07-26T23:01:28.358Z,29.18
2023-07-26T23:03:54.884Z,29.11
2023-07-26T23:06:21.374Z,28.99
2023-07-26T23:08:47.907Z,28.73
2023-07-26T23:11:14.323Z,28.76
2023-07-26T23:13:40.868Z,28.90
2023-07-26T23:16:07.619Z,28.73
2023-07-26T23:18:34.423Z,28.71
2023-07-26T23:21:00.887Z,28.58
2023-07-26T23:23:27.437Z,28.41
2023-07-26T23:25:53.982Z,28.36
2023-07-26T23:28:20.619Z,28.34
2023-07-26T23:30:48.335Z,28.34
2023-07-26T23:33:15.464Z,28.25
2023-07-26T23:35:45.623Z,28.27
2023-07-26T23:38:12.107Z,28.33
2023-07-26T23:40:38.578Z,28.44
2023-07-26T23:43:08.569Z,28.52
2023-07-26T23:45:35.761Z,28.42
2023-07-26T23:48:02.858Z,28.24
2023-07-26T23:50:29.689Z,28.51
2023-07-26T23:52:56.109Z,28.70
2023-07-26T23:55:23.132Z,28.98
2023-07-26T23:57:49.523Z,28.85
